KCPW

Wolf Creek Pass Airport

Pagosa Springs, Colorado, USA
METAR KCPW 170753Z AUTO 22010KT 10SM CLR M08/M17 A2997 RMK AO2
Observed Flight Rules
Dec-17 @ 07:53 UTC (18 minutes ago) Visual Flight Rules
Wind Visibility Clouds
220° at 10 knots 10 miles
  • Clear skies
Temperatures Readings
Current -8°C / 18°F
Dewpoint -17°C / 1°F
Humidity 49%
Altimeter 29.97" Hg
Pressure 1015 hPa
Elevation 3584
METAR KCPW 170753Z AUTO 22010KT 10SM CLR M08/M17 A2997 RMK AO2
Observed Flight Rules
Dec-17 @ 07:53 UTC
(18 minutes ago)
VFR
Wind Visibility
220° at 10 knots 10 miles
Clouds
  • Clear skies
Temperature Dewpoint
-8°C / 18°F -17°C / 1°F
Humidity Altimeter Pressure
49% 29.97" Hg 1015 hPa